Time;durP1;ratioP1;P1;durP2;ratioP2;P2;SDS_P1;SDS_P2;PMS_P1;PMS_P2;Temp;Humidity;BMP_temperature;BMP_pressure;BME280_temperature;BME280_humidity;BME280_pressure;Samples;Min_cycle;Max_cycle;Signal;HPM_P1;HPM_P2
2022/01/13 00:01:23;;;;;;;;;;;3.40;45.80;;;;;;5095999;28;19961;-65
2022/01/13 00:03:48;;;;;;;;;;;3.40;45.80;;;;;;5095725;28;19908;-69
2022/01/13 00:06:14;;;;;;;;;;;3.50;45.70;;;;;;5096157;28;19915;-69
2022/01/13 00:08:40;;;;;;;;;;;3.50;45.40;;;;;;5095731;28;19920;-67
2022/01/13 00:11:05;;;;;;;;;;;3.50;45.10;;;;;;5096145;28;19908;-69
2022/01/13 00:13:44;;;;;;;;;;;3.50;45.20;;;;;;5095978;28;20397;-69
2022/01/13 00:18:48;;;;;;;;;;;3.70;44.00;;;;;;5095912;28;19931;-65
2022/01/13 00:21:17;;;;;;;;;;;3.70;44.00;;;;;;5095801;28;19908;-64
2022/01/13 00:23:49;;;;;;;;;;;3.70;43.60;;;;;;5095594;28;19962;-66
2022/01/13 00:26:21;;;;;;;;;;;3.60;44.00;;;;;;5096025;28;19949;-63
2022/01/13 00:28:49;;;;;;;;;;;3.70;43.90;;;;;;5095598;28;19908;-63
2022/01/13 00:31:18;;;;;;;;;;;3.80;43.50;;;;;;5095227;28;20280;-64
2022/01/13 00:33:46;;;;;;;;;;;3.80;43.50;;;;;;5095298;28;19915;-63
2022/01/13 00:36:11;;;;;;;;;;;3.70;43.60;;;;;;5095352;28;19942;-64
2022/01/13 00:38:37;;;;;;;;;;;3.70;43.80;;;;;;5094130;28;19952;-63
2022/01/13 00:41:03;;;;;;;;;;;3.70;43.50;;;;;;5095102;28;19909;-64
2022/01/13 00:43:28;;;;;;;;;;;3.70;43.70;;;;;;5095239;28;19950;-63
2022/01/13 00:45:54;;;;;;;;;;;3.70;43.70;;;;;;5095394;28;19912;-69
2022/01/13 00:48:20;;;;;;;;;;;3.60;43.90;;;;;;5095207;28;20351;-65
2022/01/13 00:50:46;;;;;;;;;;;3.60;44.10;;;;;;5095404;28;20228;-69
2022/01/13 00:53:12;;;;;;;;;;;3.60;43.80;;;;;;5095183;28;19916;-68
2022/01/13 00:55:49;;;;;;;;;;;3.70;43.50;;;;;;5095232;28;19919;-68
2022/01/13 00:58:16;;;;;;;;;;;3.70;43.30;;;;;;5095188;28;19916;-66
2022/01/13 01:00:42;;;;;;;;;;;3.70;43.20;;;;;;5095050;28;19912;-68
2022/01/13 01:03:08;;;;;;;;;;;3.80;42.60;;;;;;5095200;28;19930;-69
2022/01/13 01:05:34;;;;;;;;;;;3.90;42.40;;;;;;5095017;28;20399;-68
2022/01/13 01:08:01;;;;;;;;;;;4.00;41.50;;;;;;5094993;28;19912;-67
2022/01/13 01:10:26;;;;;;;;;;;3.90;41.50;;;;;;5095156;28;20371;-68
2022/01/13 01:12:52;;;;;;;;;;;4.00;41.10;;;;;;5093524;28;19922;-69
2022/01/13 01:15:18;;;;;;;;;;;4.00;41.20;;;;;;5094792;28;20275;-69
2022/01/13 01:17:49;;;;;;;;;;;4.00;41.10;;;;;;5094932;28;19947;-66
2022/01/13 01:20:15;;;;;;;;;;;4.00;41.10;;;;;;5094735;28;19934;-68
2022/01/13 01:22:56;;;;;;;;;;;4.00;41.20;;;;;;5094785;28;19908;-68
2022/01/13 01:27:56;;;;;;;;;;;4.10;41.20;;;;;;5094529;28;19908;-67
2022/01/13 01:30:40;;;;;;;;;;;4.00;41.40;;;;;;5094672;28;20011;-68
2022/01/13 01:33:07;;;;;;;;;;;3.90;41.70;;;;;;5094263;28;19924;-67
2022/01/13 01:35:33;;;;;;;;;;;4.00;41.70;;;;;;5094510;28;19931;-67
2022/01/13 01:37:58;;;;;;;;;;;4.00;41.60;;;;;;5094492;28;20360;-69
2022/01/13 01:40:24;;;;;;;;;;;3.90;41.50;;;;;;5094331;28;19912;-69
2022/01/13 01:42:50;;;;;;;;;;;4.00;41.60;;;;;;5094406;28;19912;-68
2022/01/13 01:45:17;;;;;;;;;;;3.90;41.60;;;;;;5094127;28;19951;-68
2022/01/13 01:47:44;;;;;;;;;;;3.90;41.60;;;;;;5094172;28;19908;-66
2022/01/13 01:50:17;;;;;;;;;;;3.80;41.80;;;;;;5094377;28;19912;-69
2022/01/13 01:52:43;;;;;;;;;;;3.80;42.00;;;;;;5093404;28;20314;-68
2022/01/13 01:55:09;;;;;;;;;;;3.80;42.00;;;;;;5093877;28;19961;-68
2022/01/13 01:57:35;;;;;;;;;;;3.80;42.10;;;;;;5093874;28;19912;-66
2022/01/13 02:00:01;;;;;;;;;;;3.80;42.50;;;;;;5094046;28;19915;-69
2022/01/13 02:02:28;;;;;;;;;;;3.70;43.10;;;;;;5093907;28;19931;-66
2022/01/13 02:04:54;;;;;;;;;;;3.60;42.90;;;;;;5093794;28;19962;-66
2022/01/13 02:07:20;;;;;;;;;;;3.70;42.90;;;;;;5093643;28;19911;-66
2022/01/13 02:09:50;;;;;;;;;;;3.60;43.00;;;;;;5093518;28;19912;-67
2022/01/13 02:12:25;;;;;;;;;;;3.70;43.50;;;;;;5093268;28;19961;-70
2022/01/13 02:15:04;;;;;;;;;;;3.70;42.60;;;;;;5093554;28;20267;-68
2022/01/13 02:17:34;;;;;;;;;;;3.70;42.50;;;;;;5093276;28;19908;-70
2022/01/13 02:20:03;;;;;;;;;;;3.70;42.30;;;;;;5093388;28;19935;-68
2022/01/13 02:22:29;;;;;;;;;;;3.60;42.40;;;;;;5093567;28;19908;-69
2022/01/13 02:24:54;;;;;;;;;;;3.70;42.20;;;;;;5093389;28;19915;-68
2022/01/13 02:27:20;;;;;;;;;;;3.80;42.10;;;;;;5093483;28;19998;-67
2022/01/13 02:29:45;;;;;;;;;;;3.80;41.10;;;;;;5093408;28;19909;-69
2022/01/13 02:32:11;;;;;;;;;;;3.90;41.00;;;;;;5093036;28;19920;-69
2022/01/13 02:34:36;;;;;;;;;;;3.80;41.10;;;;;;5093110;28;19919;-68
2022/01/13 02:37:03;;;;;;;;;;;3.80;41.10;;;;;;5093012;28;20307;-68
2022/01/13 02:39:29;;;;;;;;;;;3.80;41.10;;;;;;5093542;28;19908;-68
2022/01/13 02:41:55;;;;;;;;;;;3.80;41.30;;;;;;5093049;28;19915;-68
2022/01/13 02:44:22;;;;;;;;;;;3.80;41.10;;;;;;5092939;28;19931;-68
2022/01/13 02:49:15;;;;;;;;;;;3.90;40.20;;;;;;5093211;28;19908;-63
2022/01/13 02:51:41;;;;;;;;;;;3.90;40.50;;;;;;5093041;28;19990;-64
2022/01/13 02:54:07;;;;;;;;;;;3.80;40.70;;;;;;5093102;28;19915;-63
2022/01/13 02:56:33;;;;;;;;;;;4.00;40.20;;;;;;5092912;28;19908;-64
2022/01/13 02:58:59;;;;;;;;;;;4.00;39.80;;;;;;5093213;28;20061;-64
2022/01/13 03:01:25;;;;;;;;;;;4.00;40.10;;;;;;5093154;28;20259;-66
2022/01/13 03:03:51;;;;;;;;;;;4.10;40.00;;;;;;5093670;28;19944;-66
2022/01/13 03:06:24;;;;;;;;;;;4.20;39.30;;;;;;5097472;28;19908;-64
2022/01/13 03:08:51;;;;;;;;;;;4.20;38.80;;;;;;5097208;28;20282;-68
2022/01/13 03:11:17;;;;;;;;;;;4.20;38.70;;;;;;5097279;28;19908;-68
2022/01/13 03:13:42;;;;;;;;;;;4.10;38.90;;;;;;5096815;28;19910;-67
2022/01/13 03:16:09;;;;;;;;;;;4.10;38.10;;;;;;5096953;28;19912;-68
2022/01/13 03:18:35;;;;;;;;;;;4.20;37.80;;;;;;5097086;28;19994;-67
2022/01/13 03:21:01;;;;;;;;;;;4.20;37.90;;;;;;5096733;28;19919;-69
2022/01/13 03:23:27;;;;;;;;;;;4.10;38.00;;;;;;5097024;28;20268;-66
2022/01/13 03:25:53;;;;;;;;;;;4.10;37.90;;;;;;5096844;28;19915;-65
2022/01/13 03:28:29;;;;;;;;;;;4.30;37.80;;;;;;5096858;28;19992;-70
2022/01/13 03:30:55;;;;;;;;;;;4.40;37.90;;;;;;5096621;28;19924;-68
2022/01/13 03:33:20;;;;;;;;;;;4.30;38.20;;;;;;5096409;28;19928;-67
2022/01/13 03:35:46;;;;;;;;;;;4.20;38.30;;;;;;5096686;28;19908;-67
2022/01/13 03:38:12;;;;;;;;;;;4.30;38.40;;;;;;5096709;28;19923;-63
2022/01/13 03:40:37;;;;;;;;;;;4.20;38.40;;;;;;5096691;28;20289;-62
2022/01/13 03:43:04;;;;;;;;;;;4.20;38.10;;;;;;5096750;28;19962;-64
2022/01/13 03:45:30;;;;;;;;;;;4.20;37.80;;;;;;5096273;28;19919;-64
2022/01/13 03:47:56;;;;;;;;;;;4.20;38.10;;;;;;5096602;28;19908;-62
2022/01/13 03:50:21;;;;;;;;;;;4.10;38.00;;;;;;5096381;28;20409;-64
2022/01/13 03:52:56;;;;;;;;;;;4.20;39.20;;;;;;5096629;28;20011;-63
2022/01/13 03:55:34;;;;;;;;;;;4.20;39.70;;;;;;5096232;28;19947;-65
2022/01/13 03:58:18;;;;;;;;;;;4.10;40.30;;;;;;5096351;28;19958;-62
2022/01/13 04:01:10;;;;;;;;;;;3.70;40.80;;;;;;5096534;28;19915;-64
2022/01/13 04:03:37;;;;;;;;;;;3.80;38.80;;;;;;5096171;28;19999;-64
2022/01/13 04:06:04;;;;;;;;;;;3.90;38.10;;;;;;5095913;28;19908;-65
2022/01/13 04:08:30;;;;;;;;;;;4.00;37.50;;;;;;5096165;28;19961;-64
2022/01/13 04:11:10;;;;;;;;;;;4.10;37.50;;;;;;5096202;28;19912;-63
2022/01/13 04:16:15;;;;;;;;;;;4.10;37.00;;;;;;5094997;28;19916;-63
2022/01/13 04:18:40;;;;;;;;;;;4.00;37.50;;;;;;5095783;28;19913;-66
2022/01/13 04:21:06;;;;;;;;;;;4.00;37.80;;;;;;5095783;28;19912;-65
2022/01/13 04:23:32;;;;;;;;;;;4.00;38.00;;;;;;5095958;28;20390;-62
2022/01/13 04:25:58;;;;;;;;;;;3.90;38.20;;;;;;5095577;28;19916;-62
2022/01/13 04:28:27;;;;;;;;;;;3.80;38.40;;;;;;5095898;28;20283;-62
2022/01/13 04:31:00;;;;;;;;;;;3.80;38.60;;;;;;5095753;28;20367;-63
2022/01/13 04:33:30;;;;;;;;;;;3.70;38.90;;;;;;5095488;28;19967;-62
2022/01/13 04:35:56;;;;;;;;;;;3.60;39.30;;;;;;5096112;28;20363;-64
2022/01/13 04:38:22;;;;;;;;;;;3.60;39.60;;;;;;5095736;28;20386;-64
2022/01/13 04:40:54;;;;;;;;;;;3.60;39.70;;;;;;5095529;28;19955;-68
2022/01/13 04:43:20;;;;;;;;;;;3.50;40.00;;;;;;5095246;28;19919;-63
2022/01/13 04:45:45;;;;;;;;;;;3.50;40.20;;;;;;5095202;28;19908;-67
2022/01/13 04:48:11;;;;;;;;;;;3.50;40.40;;;;;;5095364;28;19940;-64
2022/01/13 04:50:37;;;;;;;;;;;3.50;40.10;;;;;;5095159;28;20231;-68
2022/01/13 04:53:02;;;;;;;;;;;3.50;39.70;;;;;;5095015;28;19923;-67
2022/01/13 04:55:31;;;;;;;;;;;3.60;40.20;;;;;;5093604;28;19908;-67
2022/01/13 04:57:59;;;;;;;;;;;3.60;40.10;;;;;;5095064;28;19908;-69
2022/01/13 05:00:25;;;;;;;;;;;3.70;39.90;;;;;;5094808;28;19944;-69
2022/01/13 05:02:51;;;;;;;;;;;3.80;39.60;;;;;;5094819;28;20342;-67
2022/01/13 05:05:16;;;;;;;;;;;3.90;39.40;;;;;;5094921;28;19908;-66
2022/01/13 05:07:42;;;;;;;;;;;3.90;39.20;;;;;;5094716;28;19908;-68
2022/01/13 05:10:08;;;;;;;;;;;3.90;38.70;;;;;;5095012;28;20340;-67
2022/01/13 05:12:56;;;;;;;;;;;3.80;38.90;;;;;;5094742;28;20439;-61
2022/01/13 05:15:24;;;;;;;;;;;3.70;39.40;;;;;;5094407;28;19961;-67
2022/01/13 05:20:26;;;;;;;;;;;3.60;40.20;;;;;;5094467;28;19915;-63
2022/01/13 05:22:52;;;;;;;;;;;3.50;39.70;;;;;;5094499;28;20041;-64
2022/01/13 05:25:19;;;;;;;;;;;3.60;39.80;;;;;;5094439;28;19956;-63
2022/01/13 05:27:45;;;;;;;;;;;3.70;39.80;;;;;;5094339;28;20031;-63
2022/01/13 05:30:11;;;;;;;;;;;3.70;39.70;;;;;;5094543;28;19916;-63
2022/01/13 05:32:37;;;;;;;;;;;3.90;39.00;;;;;;5094422;28;19916;-64
2022/01/13 05:35:02;;;;;;;;;;;3.90;39.20;;;;;;5094286;28;19908;-64
2022/01/13 05:37:28;;;;;;;;;;;4.00;39.10;;;;;;5094120;28;20074;-65
2022/01/13 05:39:54;;;;;;;;;;;4.00;39.00;;;;;;5094315;28;19977;-64
2022/01/13 05:42:20;;;;;;;;;;;4.00;38.30;;;;;;5094241;28;19935;-64
2022/01/13 05:44:46;;;;;;;;;;;3.90;37.90;;;;;;5094170;28;19908;-64
2022/01/13 05:47:12;;;;;;;;;;;3.90;38.20;;;;;;5094327;28;19934;-64
2022/01/13 05:49:41;;;;;;;;;;;3.90;38.40;;;;;;5094317;28;19912;-64
2022/01/13 05:52:07;;;;;;;;;;;4.00;38.50;;;;;;5093986;28;19920;-62
2022/01/13 05:54:33;;;;;;;;;;;4.10;38.40;;;;;;5092366;28;19916;-66
2022/01/13 05:56:59;;;;;;;;;;;4.10;38.30;;;;;;5094167;28;19908;-65
2022/01/13 05:59:24;;;;;;;;;;;4.00;38.60;;;;;;5092759;28;19934;-65
2022/01/13 06:01:50;;;;;;;;;;;3.90;38.50;;;;;;5093710;28;19966;-64
2022/01/13 06:04:16;;;;;;;;;;;3.90;39.00;;;;;;5093861;28;19962;-64
2022/01/13 06:06:41;;;;;;;;;;;3.90;38.60;;;;;;5093662;28;19916;-64
2022/01/13 06:09:07;;;;;;;;;;;3.90;38.80;;;;;;5093700;28;19908;-63
2022/01/13 06:11:41;;;;;;;;;;;4.00;38.50;;;;;;5093600;28;19977;-63
2022/01/13 06:14:07;;;;;;;;;;;3.90;38.60;;;;;;5093444;28;19991;-63
2022/01/13 06:16:33;;;;;;;;;;;3.80;38.40;;;;;;5093509;28;19996;-64
2022/01/13 06:19:00;;;;;;;;;;;3.90;39.00;;;;;;5093386;28;19908;-67
2022/01/13 06:21:25;;;;;;;;;;;3.90;39.30;;;;;;5093537;28;20341;-64
2022/01/13 06:23:51;;;;;;;;;;;4.00;38.40;;;;;;5093494;28;19909;-65
2022/01/13 06:26:17;;;;;;;;;;;3.90;38.20;;;;;;5093527;28;19917;-64
2022/01/13 06:28:42;;;;;;;;;;;4.10;38.00;;;;;;5093632;28;19915;-66
2022/01/13 06:31:08;;;;;;;;;;;4.10;38.00;;;;;;5093481;28;19920;-65
2022/01/13 06:33:34;;;;;;;;;;;4.00;38.50;;;;;;5093562;28;20030;-66
2022/01/13 06:36:00;;;;;;;;;;;3.80;38.50;;;;;;5093607;28;19912;-63
2022/01/13 06:38:25;;;;;;;;;;;3.90;38.50;;;;;;5093116;28;20413;-62
2022/01/13 06:40:51;;;;;;;;;;;3.70;39.10;;;;;;5093402;28;19908;-62
2022/01/13 06:43:17;;;;;;;;;;;3.80;39.10;;;;;;5093475;28;19908;-63
2022/01/13 06:45:43;;;;;;;;;;;3.90;38.10;;;;;;5094382;28;20364;-63
2022/01/13 06:48:08;;;;;;;;;;;3.80;38.90;;;;;;5094605;28;19908;-62
2022/01/13 06:50:35;;;;;;;;;;;3.90;38.70;;;;;;5103254;28;19908;-63
2022/01/13 06:53:01;;;;;;;;;;;3.80;39.10;;;;;;5113574;28;19931;-64
2022/01/13 06:55:26;;;;;;;;;;;3.70;39.20;;;;;;5108313;28;19908;-63
2022/01/13 06:57:52;;;;;;;;;;;3.90;38.50;;;;;;5113377;28;19892;-65
2022/01/13 07:00:18;;;;;;;;;;;4.00;45.50;;;;;;5101992;28;19915;-59
2022/01/13 07:02:44;;;;;;;;;;;4.40;45.50;;;;;;5093473;28;19908;-63
2022/01/13 07:05:09;;;;;;;;;;;4.70;46.70;;;;;;5093927;28;20002;-61
2022/01/13 07:07:37;;;;;;;;;;;4.70;42.50;;;;;;5093452;28;19920;-61
2022/01/13 07:10:04;;;;;;;;;;;4.80;40.30;;;;;;5093387;28;19915;-60
2022/01/13 07:12:29;;;;;;;;;;;5.00;42.00;;;;;;5093355;28;19938;-59
2022/01/13 07:14:57;;;;;;;;;;;5.10;39.10;;;;;;5093223;28;20417;-59
2022/01/13 07:17:23;;;;;;;;;;;5.30;40.40;;;;;;5092962;28;19908;-59
2022/01/13 07:19:51;;;;;;;;;;;5.40;39.30;;;;;;5093467;28;19954;-63
2022/01/13 07:22:17;;;;;;;;;;;5.30;37.90;;;;;;5093666;28;20031;-61
2022/01/13 07:24:43;;;;;;;;;;;5.00;36.20;;;;;;5093773;28;19934;-60
2022/01/13 07:27:08;;;;;;;;;;;4.70;36.80;;;;;;5093199;28;19908;-64
2022/01/13 07:29:34;;;;;;;;;;;4.60;36.80;;;;;;5092576;28;19912;-60
2022/01/13 07:32:00;;;;;;;;;;;4.50;36.90;;;;;;5092961;28;19935;-61
2022/01/13 07:34:25;;;;;;;;;;;4.60;37.10;;;;;;5097686;28;19971;-60
2022/01/13 07:36:51;;;;;;;;;;;4.60;36.80;;;;;;5102323;28;19919;-65
2022/01/13 07:39:16;;;;;;;;;;;4.70;36.80;;;;;;5101652;28;20268;-60
2022/01/13 07:41:42;;;;;;;;;;;4.60;36.50;;;;;;5103250;28;19909;-63
2022/01/13 07:44:08;;;;;;;;;;;4.50;36.90;;;;;;5095865;28;20300;-68
2022/01/13 07:46:35;;;;;;;;;;;4.40;37.20;;;;;;5093098;28;19945;-62
2022/01/13 07:49:00;;;;;;;;;;;4.50;37.00;;;;;;5093213;28;20049;-60
2022/01/13 07:51:26;;;;;;;;;;;4.50;37.40;;;;;;5094606;28;19908;-60
2022/01/13 07:53:52;;;;;;;;;;;4.60;37.80;;;;;;5096722;28;19919;-61
2022/01/13 07:56:17;;;;;;;;;;;4.80;37.50;;;;;;5096737;28;19916;-62
2022/01/13 07:58:44;;;;;;;;;;;5.00;37.00;;;;;;5096466;28;19915;-64
2022/01/13 08:01:09;;;;;;;;;;;5.30;36.50;;;;;;5096446;28;19946;-66
2022/01/13 08:03:35;;;;;;;;;;;5.40;36.30;;;;;;5096355;28;20307;-67
2022/01/13 08:06:01;;;;;;;;;;;5.20;36.50;;;;;;5096407;28;19912;-67
2022/01/13 08:08:27;;;;;;;;;;;5.20;36.80;;;;;;5096307;28;19916;-66
2022/01/13 08:10:52;;;;;;;;;;;5.20;37.00;;;;;;5096035;28;20397;-65
2022/01/13 08:13:18;;;;;;;;;;;5.20;37.10;;;;;;5095629;28;19916;-64
2022/01/13 08:15:44;;;;;;;;;;;5.10;37.80;;;;;;5089329;28;19935;-65
2022/01/13 08:20:53;;;;;;;;;;;5.20;37.80;;;;;;5095903;28;19923;-61
2022/01/13 08:23:19;;;;;;;;;;;5.30;37.60;;;;;;5095486;28;19945;-62
2022/01/13 08:25:45;;;;;;;;;;;5.30;37.80;;;;;;5095515;28;19915;-61
2022/01/13 08:28:11;;;;;;;;;;;5.50;37.70;;;;;;5082213;28;20018;-65
2022/01/13 08:30:37;;;;;;;;;;;5.80;37.10;;;;;;5095632;28;19943;-59
2022/01/13 08:33:03;;;;;;;;;;;5.90;36.70;;;;;;5094976;28;19920;-62
2022/01/13 08:35:28;;;;;;;;;;;5.90;36.70;;;;;;5095226;28;19981;-63
2022/01/13 08:37:54;;;;;;;;;;;5.90;36.60;;;;;;5094888;28;20265;-60
2022/01/13 08:40:20;;;;;;;;;;;6.00;36.70;;;;;;5095412;28;20002;-61
2022/01/13 08:42:45;;;;;;;;;;;6.00;36.50;;;;;;5095432;28;19919;-62
2022/01/13 08:45:12;;;;;;;;;;;6.10;36.20;;;;;;5091955;28;20292;-63
2022/01/13 08:47:37;;;;;;;;;;;6.10;36.50;;;;;;5096709;28;20376;-60
2022/01/13 08:50:05;;;;;;;;;;;6.10;36.40;;;;;;5096275;28;19920;-61
2022/01/13 08:52:33;;;;;;;;;;;6.10;36.50;;;;;;5103987;28;19920;-60
2022/01/13 08:54:59;;;;;;;;;;;6.00;37.20;;;;;;5095486;28;19908;-60
2022/01/13 08:57:25;;;;;;;;;;;6.20;38.10;;;;;;5094838;28;19915;-61
2022/01/13 08:59:51;;;;;;;;;;;6.20;37.20;;;;;;5095107;28;20300;-60
2022/01/13 09:02:16;;;;;;;;;;;6.20;36.40;;;;;;5095000;28;19908;-61
2022/01/13 09:04:42;;;;;;;;;;;6.30;36.70;;;;;;5093585;28;19909;-61
2022/01/13 09:07:07;;;;;;;;;;;6.30;36.00;;;;;;5095514;28;20310;-59
2022/01/13 09:09:34;;;;;;;;;;;6.40;36.50;;;;;;5095142;28;19908;-61
2022/01/13 09:12:00;;;;;;;;;;;6.40;37.00;;;;;;5094960;28;20019;-63
2022/01/13 09:14:27;;;;;;;;;;;6.40;37.00;;;;;;5094902;28;20387;-61
2022/01/13 09:16:53;;;;;;;;;;;6.40;36.30;;;;;;5094853;28;19999;-62
2022/01/13 09:19:19;;;;;;;;;;;6.50;36.50;;;;;;5094749;28;19915;-66
2022/01/13 09:21:46;;;;;;;;;;;6.70;36.50;;;;;;5094896;28;19919;-66
2022/01/13 09:24:14;;;;;;;;;;;6.80;36.20;;;;;;5095300;28;20401;-60
2022/01/13 09:26:40;;;;;;;;;;;6.90;36.10;;;;;;5095287;28;19908;-68
2022/01/13 09:29:06;;;;;;;;;;;7.00;35.40;;;;;;5095081;28;19908;-62
2022/01/13 09:31:32;;;;;;;;;;;6.90;35.30;;;;;;5099234;28;19926;-60
2022/01/13 09:33:58;;;;;;;;;;;7.00;35.40;;;;;;5100819;28;19971;-62
2022/01/13 09:36:24;;;;;;;;;;;7.00;35.50;;;;;;5099655;28;20323;-65
2022/01/13 09:38:49;;;;;;;;;;;7.00;35.50;;;;;;5097587;28;20325;-62
2022/01/13 09:41:15;;;;;;;;;;;7.10;35.70;;;;;;5096552;28;19909;-67
2022/01/13 09:43:42;;;;;;;;;;;7.40;35.70;;;;;;5093367;28;19920;-65
2022/01/13 09:46:08;;;;;;;;;;;7.40;36.00;;;;;;5092897;28;20275;-66
2022/01/13 09:48:37;;;;;;;;;;;7.40;36.60;;;;;;5092823;28;19908;-60
2022/01/13 09:51:02;;;;;;;;;;;7.40;36.50;;;;;;5093196;28;20000;-64
2022/01/13 09:53:29;;;;;;;;;;;7.40;36.90;;;;;;5092415;28;20086;-62
2022/01/13 09:55:55;;;;;;;;;;;7.50;36.80;;;;;;5092773;28;19913;-62
2022/01/13 09:58:20;;;;;;;;;;;7.60;36.30;;;;;;5092310;28;19915;-64
2022/01/13 10:00:46;;;;;;;;;;;7.50;37.00;;;;;;5090997;28;19915;-68
2022/01/13 10:03:13;;;;;;;;;;;7.60;37.00;;;;;;5092597;28;20007;-63
2022/01/13 10:05:52;;;;;;;;;;;7.60;37.40;;;;;;5092634;28;19918;-65
2022/01/13 10:08:21;;;;;;;;;;;7.60;37.80;;;;;;5092280;28;19912;-63
2022/01/13 10:10:47;;;;;;;;;;;7.40;38.10;;;;;;5092137;28;19908;-63
2022/01/13 10:13:22;;;;;;;;;;;7.30;38.60;;;;;;5090511;28;20278;-66
2022/01/13 10:18:37;;;;;;;;;;;7.30;39.40;;;;;;5092661;28;19915;-65
2022/01/13 10:21:06;;;;;;;;;;;7.20;39.40;;;;;;5092576;28;19908;-62
2022/01/13 10:23:32;;;;;;;;;;;7.20;39.40;;;;;;5092154;28;20345;-66
2022/01/13 10:26:06;;;;;;;;;;;7.30;39.80;;;;;;5092014;28;20011;-65
2022/01/13 10:28:32;;;;;;;;;;;7.30;40.00;;;;;;5092288;28;19999;-65
2022/01/13 10:30:58;;;;;;;;;;;7.30;40.00;;;;;;5091847;28;19965;-64
2022/01/13 10:33:27;;;;;;;;;;;7.40;40.20;;;;;;5091194;28;20207;-65
2022/01/13 10:35:54;;;;;;;;;;;7.50;39.80;;;;;;5091944;28;19944;-65
2022/01/13 10:38:20;;;;;;;;;;;7.50;39.90;;;;;;5092410;28;20645;-70
2022/01/13 10:40:47;;;;;;;;;;;7.60;40.30;;;;;;5075961;28;19917;-60
2022/01/13 10:43:15;;;;;;;;;;;7.60;40.00;;;;;;5082940;28;19918;-62
2022/01/13 10:45:42;;;;;;;;;;;7.80;39.60;;;;;;5086497;28;20040;-66
2022/01/13 10:48:11;;;;;;;;;;;8.00;39.70;;;;;;5091462;28;19934;-63
2022/01/13 10:50:42;;;;;;;;;;;8.10;39.10;;;;;;5092050;28;19909;-65
2022/01/13 10:53:09;;;;;;;;;;;8.10;39.30;;;;;;5083724;28;19923;-66
2022/01/13 10:55:37;;;;;;;;;;;8.30;39.20;;;;;;5081888;28;19909;-64
2022/01/13 10:58:03;;;;;;;;;;;8.40;39.10;;;;;;5080453;28;19908;-64
2022/01/13 11:00:30;;;;;;;;;;;8.50;38.60;;;;;;5072124;28;19909;-63
2022/01/13 11:03:14;;;;;;;;;;;8.20;39.30;;;;;;5071690;28;19908;-64
2022/01/13 11:05:42;;;;;;;;;;;8.30;39.40;;;;;;5090291;28;19912;-63
2022/01/13 11:08:08;;;;;;;;;;;8.40;39.00;;;;;;5091012;28;19913;-64
2022/01/13 11:10:35;;;;;;;;;;;8.60;39.20;;;;;;5081700;28;19932;-65
2022/01/13 11:13:03;;;;;;;;;;;8.90;38.50;;;;;;5072700;28;19921;-64
2022/01/13 11:15:29;;;;;;;;;;;8.90;38.40;;;;;;5079667;28;19923;-65
2022/01/13 11:17:55;;;;;;;;;;;8.90;38.90;;;;;;5083241;28;20322;-67
2022/01/13 11:20:22;;;;;;;;;;;8.90;39.00;;;;;;5072280;28;20005;-65
2022/01/13 11:22:49;;;;;;;;;;;9.00;38.60;;;;;;5072418;28;19909;-63
2022/01/13 11:25:16;;;;;;;;;;;9.10;38.00;;;;;;5076027;28;20452;-64
2022/01/13 11:27:42;;;;;;;;;;;9.20;39.10;;;;;;5074837;28;20026;-64
2022/01/13 11:30:09;;;;;;;;;;;8.90;38.20;;;;;;5076147;28;19954;-69
2022/01/13 11:32:35;;;;;;;;;;;8.80;39.30;;;;;;5076221;28;19960;-64
2022/01/13 11:35:01;;;;;;;;;;;8.90;38.80;;;;;;5076316;28;19947;-64
2022/01/13 11:37:27;;;;;;;;;;;8.90;39.30;;;;;;5076403;28;19908;-64
2022/01/13 11:39:53;;;;;;;;;;;8.90;39.40;;;;;;5076387;28;19916;-64
2022/01/13 11:42:19;;;;;;;;;;;8.90;39.00;;;;;;5076651;28;20334;-65
2022/01/13 11:44:44;;;;;;;;;;;8.90;38.90;;;;;;5076131;28;19920;-65
2022/01/13 11:47:22;;;;;;;;;;;9.00;39.60;;;;;;5076427;28;19912;-64
2022/01/13 11:50:04;;;;;;;;;;;9.00;39.30;;;;;;5076359;28;19913;-61
2022/01/13 11:52:42;;;;;;;;;;;9.00;39.50;;;;;;5076393;28;20295;-67
2022/01/13 11:55:26;;;;;;;;;;;9.10;39.20;;;;;;5076047;28;19909;-65
2022/01/13 11:57:52;;;;;;;;;;;9.10;39.50;;;;;;5076091;28;19948;-64
2022/01/13 12:00:21;;;;;;;;;;;9.20;39.80;;;;;;5076382;28;19908;-64
2022/01/13 12:02:48;;;;;;;;;;;9.20;39.30;;;;;;5076553;28;19909;-61
2022/01/13 12:05:16;;;;;;;;;;;9.20;39.80;;;;;;5078200;28;19908;-62
2022/01/13 12:07:43;;;;;;;;;;;9.30;39.50;;;;;;5075101;28;19916;-61
2022/01/13 12:10:10;;;;;;;;;;;9.30;39.40;;;;;;5074385;28;19920;-69
2022/01/13 12:12:37;;;;;;;;;;;9.20;39.20;;;;;;5076867;28;19920;-64
2022/01/13 12:15:19;;;;;;;;;;;9.30;39.60;;;;;;5074320;28;19909;-62
2022/01/13 12:17:46;;;;;;;;;;;9.40;40.10;;;;;;5074847;28;19947;-67
2022/01/13 12:20:55;;;;;;;;;;;9.30;39.90;;;;;;5075006;28;20009;-63
2022/01/13 12:23:45;;;;;;;;;;;9.30;40.00;;;;;;5075061;28;19917;-64
2022/01/13 12:26:29;;;;;;;;;;;9.10;40.00;;;;;;5075256;28;20035;-61
2022/01/13 12:29:14;;;;;;;;;;;9.20;40.40;;;;;;5075459;28;19908;-61
2022/01/13 12:31:58;;;;;;;;;;;9.30;40.20;;;;;;5073946;28;19978;-63
2022/01/13 12:34:23;;;;;;;;;;;9.20;40.30;;;;;;5074859;28;20003;-62
2022/01/13 12:36:49;;;;;;;;;;;9.40;40.30;;;;;;5074465;28;20440;-61
2022/01/13 12:39:15;;;;;;;;;;;9.40;40.40;;;;;;5075104;28;19909;-62
2022/01/13 12:42:00;;;;;;;;;;;9.30;40.40;;;;;;5075020;28;19968;-64
2022/01/13 12:47:11;;;;;;;;;;;9.20;40.40;;;;;;5075048;28;20007;-65
2022/01/13 12:49:37;;;;;;;;;;;9.20;40.00;;;;;;5075044;28;20007;-63
2022/01/13 12:52:03;;;;;;;;;;;9.10;40.50;;;;;;5074911;28;19913;-61
2022/01/13 12:54:29;;;;;;;;;;;9.10;40.40;;;;;;5074764;28;19985;-64
2022/01/13 12:56:54;;;;;;;;;;;9.30;41.00;;;;;;5074660;28;19948;-72
2022/01/13 12:59:21;;;;;;;;;;;9.30;40.50;;;;;;5074531;28;20003;-68
2022/01/13 13:01:47;;;;;;;;;;;9.50;40.30;;;;;;5074184;28;19957;-65
2022/01/13 13:04:13;;;;;;;;;;;9.60;40.10;;;;;;5074560;28;20003;-70
2022/01/13 13:06:41;;;;;;;;;;;9.70;39.80;;;;;;5073750;28;20261;-70
2022/01/13 13:09:07;;;;;;;;;;;9.70;39.80;;;;;;5073735;28;20331;-67
2022/01/13 13:11:34;;;;;;;;;;;9.40;40.20;;;;;;5073418;28;19920;-67
2022/01/13 13:14:00;;;;;;;;;;;9.40;40.60;;;;;;5074348;28;19917;-68
2022/01/13 13:16:26;;;;;;;;;;;9.50;40.40;;;;;;5073266;28;19913;-66
2022/01/13 13:18:52;;;;;;;;;;;9.50;40.40;;;;;;5073920;28;19991;-66
2022/01/13 13:21:17;;;;;;;;;;;9.50;40.30;;;;;;5073779;28;20018;-66
2022/01/13 13:23:44;;;;;;;;;;;9.60;40.40;;;;;;5073508;28;19938;-69
2022/01/13 13:26:18;;;;;;;;;;;9.60;40.20;;;;;;5073545;28;20207;-66
2022/01/13 13:28:48;;;;;;;;;;;9.70;39.30;;;;;;5073567;28;19923;-68
2022/01/13 13:31:18;;;;;;;;;;;9.80;39.40;;;;;;5073626;28;20019;-65
2022/01/13 13:33:43;;;;;;;;;;;9.90;39.50;;;;;;5074206;28;19921;-63
2022/01/13 13:36:14;;;;;;;;;;;9.90;39.10;;;;;;5073980;28;19920;-63
2022/01/13 13:38:47;;;;;;;;;;;9.70;39.40;;;;;;5074248;28;20047;-63
2022/01/13 13:41:12;;;;;;;;;;;9.70;39.80;;;;;;5072517;28;19908;-65
2022/01/13 13:43:38;;;;;;;;;;;9.50;40.50;;;;;;5073677;28;20253;-62
2022/01/13 13:46:03;;;;;;;;;;;9.50;40.30;;;;;;5073657;28;19965;-63
2022/01/13 13:48:30;;;;;;;;;;;9.60;39.80;;;;;;5071096;28;19919;-64
2022/01/13 13:50:56;;;;;;;;;;;9.70;39.60;;;;;;5073237;28;19912;-72
2022/01/13 13:53:22;;;;;;;;;;;9.80;39.40;;;;;;5076275;28;19923;-64
2022/01/13 13:55:59;;;;;;;;;;;9.80;39.90;;;;;;5072054;28;19997;-63
2022/01/13 13:58:25;;;;;;;;;;;9.80;39.90;;;;;;5076116;28;19908;-67
2022/01/13 14:01:00;;;;;;;;;;;9.50;40.30;;;;;;5076274;28;19916;-65
2022/01/13 14:03:39;;;;;;;;;;;9.60;40.00;;;;;;5073820;28;19939;-66
2022/01/13 14:06:05;;;;;;;;;;;9.70;39.80;;;;;;5073580;28;19909;-63
2022/01/13 14:08:30;;;;;;;;;;;10.20;59.30;;;;;;5075534;28;20271;-67
2022/01/13 14:11:08;;;;;;;;;;;10.50;46.20;;;;;;5076166;28;19998;-67
2022/01/13 14:13:34;;;;;;;;;;;10.70;57.40;;;;;;5078555;28;20011;-63
2022/01/13 14:16:00;;;;;;;;;;;11.40;55.90;;;;;;5082455;28;20025;-66
2022/01/13 14:18:25;;;;;;;;;;;12.00;53.80;;;;;;5088589;28;19985;-62
2022/01/13 14:20:59;;;;;;;;;;;12.20;43.50;;;;;;5088463;28;19913;-65
2022/01/13 14:23:26;;;;;;;;;;;12.20;49.00;;;;;;5087235;28;20310;-61
2022/01/13 14:25:54;;;;;;;;;;;12.50;48.90;;;;;;5093498;28;19962;-64
2022/01/13 14:28:19;;;;;;;;;;;12.70;46.90;;;;;;5093282;28;19909;-63
2022/01/13 14:30:46;;;;;;;;;;;12.90;44.70;;;;;;5091357;28;20351;-72
2022/01/13 14:33:19;;;;;;;;;;;12.60;35.40;;;;;;5075832;28;19916;-69
2022/01/13 14:35:56;;;;;;;;;;;12.00;34.90;;;;;;5080422;28;19916;-65
2022/01/13 14:38:21;;;;;;;;;;;11.80;43.80;;;;;;5075991;28;19909;-62
2022/01/13 14:40:48;;;;;;;;;;;11.50;44.40;;;;;;5082788;28;19976;-66
2022/01/13 14:43:19;;;;;;;;;;;10.90;38.90;;;;;;5101324;28;19938;-64
2022/01/13 14:45:46;;;;;;;;;;;10.90;40.40;;;;;;5102252;28;19931;-70
2022/01/13 14:48:12;;;;;;;;;;;10.90;41.10;;;;;;5101973;28;19969;-60
2022/01/13 14:50:37;;;;;;;;;;;11.10;46.30;;;;;;5110198;28;19909;-66
2022/01/13 14:53:03;;;;;;;;;;;11.50;45.00;;;;;;5112055;28;19916;-66